Evans, WA

3:16 AM PDT on October 23, 2014 (GMT -0700)
Deer Park | Change Station
CLOSE
Current Station
Airport
Location: Deer Park,
Elevation: 2205 ft
Nearby Weather Stations

Elev 2205 ft 47.97 °N, 117.42 °W | Updated 23 minutes ago

Overcast
Overcast
51 °F
Feels Like 51 °F
N
16
Wind Variable Wind from South
Gusts 22 mph

Today
High -- | Low -- °F
--% Chance of Precip.
Yesterday
High -- | Low -- °F
Precip. -- in
7:24 AM 5:47 PM
Waning Crescent, 0% visible
Pressure 29.77 in
Visibility 10.0 miles
Clouds Scattered Clouds 4300 ft
Mostly Cloudy 5000 ft
Overcast 6500 ft
Dew Point 47 °F
Humidity 86%
Rainfall 0.05 in
Snow Depth Not available.
UV 0 out of 12
Pollen 1.10 out of 12
PM2.5 Good
Flu Activity Sporadic
METAR KDEW 230953Z AUTO 17014G19KT 10SM -RA SCT043 BKN050 OVC065 11/08 A2976 RMK AO2 RAB0854 SLP080 P0003 T01060083

More Conditions Fewer Conditions

Pressure 29.77 in
Visibility 10.0 miles
Clouds Scattered Clouds 4300 ft
Mostly Cloudy 5000 ft
Overcast 6500 ft
Dew Point 47 °F
Humidity 86%
Rainfall 0.05 in
Snow Depth Not available.
UV 0 out of 12
Pollen 1.10 out of 12
PM2.5 Good
Flu Activity Sporadic
METAR KDEW 230953Z AUTO 17014G19KT 10SM -RA SCT043 BKN050 OVC065 11/08 A2976 RMK AO2 RAB0854 SLP080 P0003 T01060083

More Conditions Fewer Conditions

10-Day Weather Forecast

Almanac

Astronomy

Oct. 23, 2014 Rise Set
Actual Time 7:24 AM PDT 5:47 PM PDT
Civil Twilight 6:52 AM PDT 6:19 PM PDT
Nautical Twilight 6:15 AM PDT 6:56 PM PDT
Astronomical Twilight 5:39 AM PDT 7:32 PM PDT
Moon 7:07 AM PDT 5:51 PM PDT
Length of Visible Light 11h 27m
Length of Day
10h 22m
Tomorrow will be 3m 22s shorter.
Waning Crescent, 0% of the Moon is Illuminated
Today
Waning Crescent
Oct 23
New
Oct 30
First Quarter
Nov 6
Full
Nov 14
Last Quarter

Today's Extremes

State Highs State Lows

Community

WunderPhotos

Upload Photos

1,764,202 photos uploaded!

Nearby

Air Quality

  Air Quality AQ Index Pollutant
Yesterday Good
PM10
Current Good
PM2.5
Thursday Good
PM10
Thursday Good
CO
Friday Good
PM10
Friday Good
CO

Snow Depth

Station Depth Elevation
Bunchgrass Meadow 0 in 5000 ft
Moses Mountain 0 in 5300 ft
Quartz Peak 1 in 4700 ft
Harts Pass 4 in 6500 ft
Pope Ridge 0 in 3540 ft

Earthquake Activity

City Distance Mag. Time & Date
No recent earthquake activity has been reported nearby.
Minimum magnitude displayed is 2.5.

Coastal Water Temperatures

Place Temperature
No Stations Reporting

Nearby Weather Stations